CMB835 Details

Departure: Biggs Army Airfield (Fort Bliss) (KBIF)
Arrival: Joint Base McGuire Dix Lakehurst (KWRI)
Route: CME J26 PNH IFI J8 STL J110 VHP ROD J152 HAR
Notes: USTRANSCOM CONTRACT FLIGHT


Current Weather Information
KBIF 200758Z AUTO 00000KT 10SM CLR 07/M01 A3009 RMK AO2 SLP156 T00731011 $
KWRI 200756Z AUTO 00000KT 10SM CLR M02/M03 A3037 RMK AO2 SLP285 T10181026